Données météorologiques d'aviation de Metar     LIEE Cagliari Elmas Airport
Température
8°C Température
4°C Point de rosée
76% Humidité



Vent
10 KM/H
6 MPH
3 M/S
5 KTS



340°
NNO
Conditions actuelles

Clair Clair
Pression 1023.92 (hPa) - 30.24 (inHg)
Visibilité 6.2 (mile) - 10 (km)
Aéroport
Code de l'aéroport LIEE

Emplacement: Cagliari Elmas Airport
Distance: 14 (km)

Metar:
LIEE 301750Z 34005KT CAVOK 08/04 Q1024

Temps: 30-11-2021 18:50 CET